Time;durP1;ratioP1;P1;durP2;ratioP2;P2;SDS_P1;SDS_P2;PMS_P1;PMS_P2;Temp;Humidity;BMP_temperature;BMP_pressure;BME280_temperature;BME280_humidity;BME280_pressure;Samples;Min_cycle;Max_cycle;Signal;HPM_P1;HPM_P2
2023/07/18 00:01:20;;;;;;;;;;;;;;;;;;2059864;28;19997;-71
2023/07/18 00:02:40;;;;;;;;;;;;;;;;;;2060587;28;19909;-72
2023/07/18 00:04:01;;;;;;;;;;;;;;;;;;2055164;28;19926;-71
2023/07/18 00:05:22;;;;;;;;;;;;;;;;;;2053971;28;19913;-72
2023/07/18 00:06:45;;;;;;;;;;;;;;;;;;2062168;28;19989;-72
2023/07/18 00:08:05;;;;;;;;;;;;;;;;;;2065474;28;20241;-72
2023/07/18 00:09:26;;;;;;;;;;;;;;;;;;2068930;28;19909;-71
2023/07/18 00:10:47;;;;;;;;;;;;;;;;;;2063783;28;19917;-72
2023/07/18 00:12:08;;;;;;;;;;;;;;;;;;2063056;28;19910;-72
2023/07/18 00:13:29;;;;;;;;;;;;;;;;;;2063438;28;19910;-72
2023/07/18 00:14:50;;;;;;;;;;;;;;;;;;2063832;28;19929;-72
2023/07/18 00:16:10;;;;;;;;;;;;;;;;;;2065092;28;19917;-72
2023/07/18 00:17:31;;;;;;;;;;;;;;;;;;2056851;28;20045;-72
2023/07/18 00:18:52;;;;;;;;;;;;;;;;;;2064244;28;19912;-72
2023/07/18 00:20:17;;;;;;;;;;;;;;;;;;2063048;28;20324;-72
2023/07/18 00:21:37;;;;;;;;;;;;;;;;;;2063619;28;20369;-72
2023/07/18 00:22:59;;;;;;;;;;;;;;;;;;2062670;28;19985;-72
2023/07/18 00:24:20;;;;;;;;;;;;;;;;;;2056250;28;19937;-72
2023/07/18 00:25:40;;;;;;;;;;;;;;;;;;2059511;28;19928;-72
2023/07/18 00:27:01;;;;;;;;;;;;;;;;;;2063582;28;19906;-72
2023/07/18 00:28:22;;;;;;;;;;;;;;;;;;2056732;28;19921;-72
2023/07/18 00:29:42;;;;;;;;;;;;;;;;;;2060104;28;19909;-72
2023/07/18 00:31:03;;;;;;;;;;;;;;;;;;2059164;28;19914;-72
2023/07/18 00:32:24;;;;;;;;;;;;;;;;;;2056396;28;19906;-73
2023/07/18 00:33:44;;;;;;;;;;;;;;;;;;2059528;28;20284;-73
2023/07/18 00:35:05;;;;;;;;;;;;;;;;;;2063887;28;19910;-73
2023/07/18 00:36:26;;;;;;;;;;;;;;;;;;2063306;28;19910;-73
2023/07/18 00:37:47;;;;;;;;;;;;;;;;;;2061926;28;20000;-73
2023/07/18 00:39:07;;;;;;;;;;;;;;;;;;2062398;28;19910;-73
2023/07/18 00:40:28;;;;;;;;;;;;;;;;;;2062004;28;19910;-73
2023/07/18 00:41:49;;;;;;;;;;;;;;;;;;2064841;28;19914;-73
2023/07/18 00:43:10;;;;;;;;;;;;;;;;;;2070716;28;20028;-73
2023/07/18 00:44:31;;;;;;;;;;;;;;;;;;2064011;28;19905;-73
2023/07/18 00:45:52;;;;;;;;;;;;;;;;;;2060713;28;19906;-73
2023/07/18 00:47:12;;;;;;;;;;;;;;;;;;2063919;28;19913;-73
2023/07/18 00:48:33;;;;;;;;;;;;;;;;;;2057113;28;19938;-73
2023/07/18 00:49:54;;;;;;;;;;;;;;;;;;2061453;28;20325;-73
2023/07/18 00:51:14;;;;;;;;;;;;;;;;;;2061760;28;19905;-73
2023/07/18 00:52:35;;;;;;;;;;;;;;;;;;2062104;28;19905;-73
2023/07/18 00:53:56;;;;;;;;;;;;;;;;;;2062411;28;19905;-73
2023/07/18 00:55:17;;;;;;;;;;;;;;;;;;2066036;28;19961;-73
2023/07/18 00:56:38;;;;;;;;;;;;;;;;;;2063248;28;19913;-73
2023/07/18 00:57:58;;;;;;;;;;;;;;;;;;2063451;28;19913;-73
2023/07/18 00:59:19;;;;;;;;;;;;;;;;;;2063466;28;19925;-73
2023/07/18 01:00:40;;;;;;;;;;;;;;;;;;2065256;28;20333;-70
2023/07/18 01:02:02;;;;;;;;;;;;;;;;;;2061592;28;19983;-69
2023/07/18 01:03:23;;;;;;;;;;;;;;;;;;2076224;23;20665;-76
2023/07/18 01:04:44;;;;;;;;;;;;;;;;;;2049473;28;19922;-75
2023/07/18 01:06:12;;;;;;;;;;;;;;;;;;2046375;28;20428;-75
2023/07/18 01:07:42;;;;;;;;;;;;;;;;;;2038224;28;19918;-75
2023/07/18 01:09:05;;;;;;;;;;;;;;;;;;2054466;28;20373;-76
2023/07/18 01:10:29;;;;;;;;;;;;;;;;;;2045532;28;19907;-75
2023/07/18 01:11:53;;;;;;;;;;;;;;;;;;2052062;28;19918;-75
2023/07/18 01:13:31;;;;;;;;;;;;;;;;;;2047113;28;19987;-76
2023/07/18 01:14:54;;;;;;;;;;;;;;;;;;2043979;28;21447;-76
2023/07/18 01:16:21;;;;;;;;;;;;;;;;;;2056219;28;19909;-75
2023/07/18 01:17:45;;;;;;;;;;;;;;;;;;2033208;28;20393;-75
2023/07/18 01:19:11;;;;;;;;;;;;;;;;;;2037456;28;19957;-79
2023/07/18 01:20:36;;;;;;;;;;;;;;;;;;2059060;28;19910;-80
2023/07/18 01:21:59;;;;;;;;;;;;;;;;;;2050918;29;19905;-80
2023/07/18 01:23:21;;;;;;;;;;;;;;;;;;2051767;28;19906;-79
2023/07/18 01:24:44;;;;;;;;;;;;;;;;;;2047745;28;19907;-79
2023/07/18 01:26:07;;;;;;;;;;;;;;;;;;2048570;28;19911;-79
2023/07/18 01:27:30;;;;;;;;;;;;;;;;;;2048455;29;20435;-79
2023/07/18 01:28:52;;;;;;;;;;;;;;;;;;2048378;29;19914;-79
2023/07/18 01:30:13;;;;;;;;;;;;;;;;;;2046664;29;19907;-79
2023/07/18 01:31:33;;;;;;;;;;;;;;;;;;2048577;29;19913;-79
2023/07/18 01:32:54;;;;;;;;;;;;;;;;;;2049082;29;19910;-79
2023/07/18 01:34:20;;;;;;;;;;;;;;;;;;2042620;28;19907;-79
2023/07/18 01:35:41;;;;;;;;;;;;;;;;;;2049296;29;19890;-79
2023/07/18 01:37:02;;;;;;;;;;;;;;;;;;2051726;29;19910;-80
2023/07/18 01:38:29;;;;;;;;;;;;;;;;;;2046268;28;19911;-79
2023/07/18 01:39:50;;;;;;;;;;;;;;;;;;2048353;29;19917;-80
2023/07/18 01:41:15;;;;;;;;;;;;;;;;;;2048124;29;19907;-80
2023/07/18 01:42:41;;;;;;;;;;;;;;;;;;2054313;28;19921;-80
2023/07/18 01:44:08;;;;;;;;;;;;;;;;;;2053353;28;19910;-80
2023/07/18 01:45:31;;;;;;;;;;;;;;;;;;2051201;29;19977;-79
2023/07/18 01:46:52;;;;;;;;;;;;;;;;;;2048431;29;19906;-79
2023/07/18 01:48:19;;;;;;;;;;;;;;;;;;2049183;28;20431;-80
2023/07/18 01:49:42;;;;;;;;;;;;;;;;;;2046673;28;19918;-79
2023/07/18 01:51:03;;;;;;;;;;;;;;;;;;2050469;28;19911;-78
2023/07/18 01:52:27;;;;;;;;;;;;;;;;;;2046743;29;20285;-79
2023/07/18 01:53:48;;;;;;;;;;;;;;;;;;2054095;28;19906;-79
2023/07/18 01:55:09;;;;;;;;;;;;;;;;;;2053399;29;19907;-76
2023/07/18 01:56:33;;;;;;;;;;;;;;;;;;2045351;29;19907;-76
2023/07/18 01:57:53;;;;;;;;;;;;;;;;;;2050011;28;19895;-75
2023/07/18 01:59:14;;;;;;;;;;;;;;;;;;2049672;28;19906;-75
2023/07/18 02:00:37;;;;;;;;;;;;;;;;;;2049301;29;19906;-75
2023/07/18 02:01:58;;;;;;;;;;;;;;;;;;2052936;28;19917;-75
2023/07/18 02:03:19;;;;;;;;;;;;;;;;;;2050846;28;19938;-75
2023/07/18 02:04:39;;;;;;;;;;;;;;;;;;2054768;28;19918;-76
2023/07/18 02:06:02;;;;;;;;;;;;;;;;;;2056755;28;19932;-76
2023/07/18 02:07:27;;;;;;;;;;;;;;;;;;2065464;28;19912;-74
2023/07/18 02:08:50;;;;;;;;;;;;;;;;;;2075170;28;19968;-74
2023/07/18 02:10:13;;;;;;;;;;;;;;;;;;2060660;28;19890;-74
2023/07/18 02:11:34;;;;;;;;;;;;;;;;;;2065106;28;19909;-76
2023/07/18 02:12:56;;;;;;;;;;;;;;;;;;2075569;28;19909;-76
2023/07/18 02:14:19;;;;;;;;;;;;;;;;;;2062186;28;19910;-76
2023/07/18 02:15:44;;;;;;;;;;;;;;;;;;2059906;28;19914;-76
2023/07/18 02:17:21;;;;;;;;;;;;;;;;;;2060302;28;19913;-80
2023/07/18 02:18:44;;;;;;;;;;;;;;;;;;2061350;28;19924;-80
2023/07/18 02:20:05;;;;;;;;;;;;;;;;;;2062556;28;19906;-80
2023/07/18 02:21:26;;;;;;;;;;;;;;;;;;2058234;28;19915;-80
2023/07/18 02:22:50;;;;;;;;;;;;;;;;;;2057539;28;19957;-80
2023/07/18 02:24:11;;;;;;;;;;;;;;;;;;2057688;28;19906;-80
2023/07/18 02:25:32;;;;;;;;;;;;;;;;;;2056674;28;19976;-80
2023/07/18 02:27:05;;;;;;;;;;;;;;;;;;;;;
2023/07/18 02:28:29;;;;;;;;;;;;;;;;;;2059094;28;19914;-78
2023/07/18 02:29:52;;;;;;;;;;;;;;;;;;2073682;28;19917;-76
2023/07/18 02:31:15;;;;;;;;;;;;;;;;;;2061638;28;20289;-76
2023/07/18 02:32:36;;;;;;;;;;;;;;;;;;2055697;28;19917;-76
2023/07/18 02:33:59;;;;;;;;;;;;;;;;;;2052676;28;19891;-76
2023/07/18 02:35:26;;;;;;;;;;;;;;;;;;2058402;28;19901;-76
2023/07/18 02:36:47;;;;;;;;;;;;;;;;;;2051589;28;19898;-76
2023/07/18 02:38:14;;;;;;;;;;;;;;;;;;2051018;28;19933;-78
2023/07/18 02:39:42;;;;;;;;;;;;;;;;;;2050361;28;19918;-78
2023/07/18 02:41:07;;;;;;;;;;;;;;;;;;2058723;28;19964;-79
2023/07/18 02:42:31;;;;;;;;;;;;;;;;;;2045794;29;19920;-79
2023/07/18 02:43:52;;;;;;;;;;;;;;;;;;2053429;28;19908;-79
2023/07/18 02:45:13;;;;;;;;;;;;;;;;;;2049336;28;19934;-79
2023/07/18 02:46:34;;;;;;;;;;;;;;;;;;2051565;28;20285;-78
2023/07/18 02:47:54;;;;;;;;;;;;;;;;;;2071833;28;19917;-78
2023/07/18 02:49:18;;;;;;;;;;;;;;;;;;2068016;28;19910;-77
2023/07/18 02:50:38;;;;;;;;;;;;;;;;;;2065665;28;19917;-80
2023/07/18 02:51:59;;;;;;;;;;;;;;;;;;2055351;28;20361;-80
2023/07/18 02:53:20;;;;;;;;;;;;;;;;;;2056844;28;19906;-79
2023/07/18 02:54:41;;;;;;;;;;;;;;;;;;2057224;28;19902;-79
2023/07/18 02:56:03;;;;;;;;;;;;;;;;;;2060169;28;19914;-73
2023/07/18 02:57:31;;;;;;;;;;;;;;;;;;2057382;28;19973;-73
2023/07/18 02:58:57;;;;;;;;;;;;;;;;;;2052035;28;19918;-73
2023/07/18 03:00:19;;;;;;;;;;;;;;;;;;2067419;28;19893;-76
2023/07/18 03:01:43;;;;;;;;;;;;;;;;;;2065903;28;20305;-77
2023/07/18 03:03:06;;;;;;;;;;;;;;;;;;2063126;28;19926;-79
2023/07/18 03:04:27;;;;;;;;;;;;;;;;;;2064288;28;19948;-79
2023/07/18 03:05:48;;;;;;;;;;;;;;;;;;2065273;28;19906;-75
2023/07/18 03:07:14;;;;;;;;;;;;;;;;;;2055274;28;19906;-76
2023/07/18 03:08:36;;;;;;;;;;;;;;;;;;2046999;28;19922;-77
2023/07/18 03:09:57;;;;;;;;;;;;;;;;;;2064366;28;19910;-78
2023/07/18 03:13:03;;;;;;;;;;;;;;;;;;2046953;28;19974;-78
2023/07/18 03:14:25;;;;;;;;;;;;;;;;;;2057557;28;19925;-78
2023/07/18 03:15:46;;;;;;;;;;;;;;;;;;2069870;28;20335;-78
2023/07/18 03:17:10;;;;;;;;;;;;;;;;;;2061066;28;19906;-78
2023/07/18 03:18:39;;;;;;;;;;;;;;;;;;2053450;28;19929;-78
2023/07/18 03:20:00;;;;;;;;;;;;;;;;;;2062769;28;19953;-78
2023/07/18 03:21:23;;;;;;;;;;;;;;;;;;2065034;28;19914;-78
2023/07/18 03:22:47;;;;;;;;;;;;;;;;;;2052402;29;19918;-78
2023/07/18 03:24:13;;;;;;;;;;;;;;;;;;2059303;28;19917;-79
2023/07/18 03:25:37;;;;;;;;;;;;;;;;;;2057508;28;19921;-79
2023/07/18 03:27:03;;;;;;;;;;;;;;;;;;2056927;28;20349;-79
2023/07/18 03:28:24;;;;;;;;;;;;;;;;;;2051735;28;19910;-75
2023/07/18 03:29:49;;;;;;;;;;;;;;;;;;2061482;28;19916;-74
2023/07/18 03:31:13;;;;;;;;;;;;;;;;;;2063177;28;20236;-74
2023/07/18 03:32:33;;;;;;;;;;;;;;;;;;2048878;29;19906;-80
2023/07/18 03:33:54;;;;;;;;;;;;;;;;;;2054296;28;19913;-80
2023/07/18 03:35:15;;;;;;;;;;;;;;;;;;2056942;28;19914;-80
2023/07/18 03:36:35;;;;;;;;;;;;;;;;;;2055395;28;20365;-79
2023/07/18 03:37:56;;;;;;;;;;;;;;;;;;2057452;28;19906;-79
2023/07/18 03:39:20;;;;;;;;;;;;;;;;;;2049836;28;19921;-79
2023/07/18 03:40:40;;;;;;;;;;;;;;;;;;2066384;28;19900;-79
2023/07/18 03:42:02;;;;;;;;;;;;;;;;;;2061382;28;19909;-79
2023/07/18 03:43:26;;;;;;;;;;;;;;;;;;2065555;28;19921;-79
2023/07/18 03:44:46;;;;;;;;;;;;;;;;;;2056417;28;20233;-73
2023/07/18 03:46:07;;;;;;;;;;;;;;;;;;2056211;28;19947;-74
2023/07/18 03:47:28;;;;;;;;;;;;;;;;;;2055603;28;19906;-74
2023/07/18 03:48:50;;;;;;;;;;;;;;;;;;2054766;28;19953;-74
2023/07/18 03:50:11;;;;;;;;;;;;;;;;;;2057202;28;19906;-74
2023/07/18 03:51:35;;;;;;;;;;;;;;;;;;2064779;28;19917;-75
2023/07/18 03:52:58;;;;;;;;;;;;;;;;;;2075288;28;19940;-77
2023/07/18 03:54:19;;;;;;;;;;;;;;;;;;2055798;28;19985;-78
2023/07/18 03:55:40;;;;;;;;;;;;;;;;;;2072075;28;19905;-78
2023/07/18 03:57:03;;;;;;;;;;;;;;;;;;2072039;28;19926;-79
2023/07/18 03:58:24;;;;;;;;;;;;;;;;;;2058871;28;19905;-78
2023/07/18 03:59:51;;;;;;;;;;;;;;;;;;2058532;28;20439;-78
2023/07/18 04:01:19;;;;;;;;;;;;;;;;;;2058288;28;19935;-77
2023/07/18 04:02:39;;;;;;;;;;;;;;;;;;2058142;28;19910;-79
2023/07/18 04:04:03;;;;;;;;;;;;;;;;;;2054495;28;19918;-79
2023/07/18 04:07:17;;;;;;;;;;;;;;;;;;2062640;28;19913;-79
2023/07/18 04:08:38;;;;;;;;;;;;;;;;;;2048854;28;19916;-77
2023/07/18 04:09:59;;;;;;;;;;;;;;;;;;2059175;28;19906;-78
2023/07/18 04:11:28;;;;;;;;;;;;;;;;;;2055719;28;19921;-75
2023/07/18 04:12:52;;;;;;;;;;;;;;;;;;2050597;28;20301;-75
2023/07/18 04:14:20;;;;;;;;;;;;;;;;;;2063123;28;19905;-75
2023/07/18 04:15:41;;;;;;;;;;;;;;;;;;2061249;28;19918;-78
2023/07/18 04:17:05;;;;;;;;;;;;;;;;;;2057641;28;19930;-79
2023/07/18 04:18:28;;;;;;;;;;;;;;;;;;2040502;28;19914;-78
2023/07/18 04:19:49;;;;;;;;;;;;;;;;;;2063886;28;19917;-75
2023/07/18 04:21:12;;;;;;;;;;;;;;;;;;2056354;28;19906;-75
2023/07/18 04:22:33;;;;;;;;;;;;;;;;;;2051789;28;19922;-75
2023/07/18 04:23:55;;;;;;;;;;;;;;;;;;2056498;28;19921;-75
2023/07/18 04:25:15;;;;;;;;;;;;;;;;;;2054233;28;19918;-75
2023/07/18 04:26:39;;;;;;;;;;;;;;;;;;2048488;29;19907;-76
2023/07/18 04:28:03;;;;;;;;;;;;;;;;;;2058421;28;19906;-78
2023/07/18 04:29:26;;;;;;;;;;;;;;;;;;2055265;28;20300;-78
2023/07/18 04:30:47;;;;;;;;;;;;;;;;;;2066066;28;19902;-78
2023/07/18 04:32:10;;;;;;;;;;;;;;;;;;2053180;28;19914;-78
2023/07/18 04:33:33;;;;;;;;;;;;;;;;;;2061968;28;20395;-78
2023/07/18 04:34:54;;;;;;;;;;;;;;;;;;2060052;28;19917;-79
2023/07/18 04:36:15;;;;;;;;;;;;;;;;;;2056168;28;19906;-78
2023/07/18 04:37:36;;;;;;;;;;;;;;;;;;2062638;28;19909;-78
2023/07/18 04:38:57;;;;;;;;;;;;;;;;;;2049028;28;19952;-78
2023/07/18 04:40:18;;;;;;;;;;;;;;;;;;2057491;28;19906;-78
2023/07/18 04:41:41;;;;;;;;;;;;;;;;;;2054912;28;19938;-79
2023/07/18 04:43:04;;;;;;;;;;;;;;;;;;2051435;28;19914;-78
2023/07/18 04:44:32;;;;;;;;;;;;;;;;;;2052674;28;19918;-78
2023/07/18 04:45:56;;;;;;;;;;;;;;;;;;2054925;28;19910;-78
2023/07/18 04:47:16;;;;;;;;;;;;;;;;;;2057248;28;20379;-79
2023/07/18 04:48:37;;;;;;;;;;;;;;;;;;2054261;28;20307;-77
2023/07/18 04:49:59;;;;;;;;;;;;;;;;;;2054703;28;19965;-73
2023/07/18 04:51:19;;;;;;;;;;;;;;;;;;2055929;28;19906;-74
2023/07/18 04:52:42;;;;;;;;;;;;;;;;;;2055632;28;19906;-74
2023/07/18 04:54:05;;;;;;;;;;;;;;;;;;2065575;28;19909;-78
2023/07/18 04:55:26;;;;;;;;;;;;;;;;;;2056627;28;19906;-80
2023/07/18 04:56:47;;;;;;;;;;;;;;;;;;2057451;28;20579;-79
2023/07/18 04:58:13;;;;;;;;;;;;;;;;;;2057768;28;20307;-75
2023/07/18 04:59:41;;;;;;;;;;;;;;;;;;2052887;28;20867;-75
2023/07/18 05:01:07;;;;;;;;;;;;;;;;;;2056349;28;20014;-75
2023/07/18 05:02:40;;;;;;;;;;;;;;;;;;2062036;28;19914;-73
2023/07/18 05:04:00;;;;;;;;;;;;;;;;;;2065982;28;20434;-74
2023/07/18 05:05:21;;;;;;;;;;;;;;;;;;2056790;28;19890;-74
2023/07/18 05:06:43;;;;;;;;;;;;;;;;;;2063495;28;19912;-75
2023/07/18 05:08:06;;;;;;;;;;;;;;;;;;2057665;28;20455;-75
2023/07/18 05:09:29;;;;;;;;;;;;;;;;;;2057115;28;19921;-75
2023/07/18 05:10:49;;;;;;;;;;;;;;;;;;2062459;28;19890;-73
2023/07/18 05:12:10;;;;;;;;;;;;;;;;;;2057494;28;19913;-73
2023/07/18 05:13:34;;;;;;;;;;;;;;;;;;2058858;28;19905;-74
2023/07/18 05:14:57;;;;;;;;;;;;;;;;;;2071899;28;19913;-72
2023/07/18 05:16:25;;;;;;;;;;;;;;;;;;2064261;28;19933;-74
2023/07/18 05:17:47;;;;;;;;;;;;;;;;;;2058620;28;19934;-73
2023/07/18 05:19:13;;;;;;;;;;;;;;;;;;2039242;28;19919;-75
2023/07/18 05:20:45;;;;;;;;;;;;;;;;;;2055772;28;19914;-75
2023/07/18 05:22:08;;;;;;;;;;;;;;;;;;2057203;28;19914;-75
2023/07/18 05:23:38;;;;;;;;;;;;;;;;;;2059364;28;19906;-73
2023/07/18 05:25:04;;;;;;;;;;;;;;;;;;2060937;28;19916;-73
2023/07/18 05:26:28;;;;;;;;;;;;;;;;;;2061525;28;19910;-74
2023/07/18 05:27:49;;;;;;;;;;;;;;;;;;2059232;28;20562;-76
2023/07/18 05:29:13;;;;;;;;;;;;;;;;;;2046382;28;19913;-74
2023/07/18 05:30:34;;;;;;;;;;;;;;;;;;2060047;28;19906;-75
2023/07/18 05:31:57;;;;;;;;;;;;;;;;;;2054525;28;20347;-74
2023/07/18 05:33:18;;;;;;;;;;;;;;;;;;2051862;28;19977;-73
2023/07/18 05:34:41;;;;;;;;;;;;;;;;;;2052745;28;19911;-73
2023/07/18 05:36:08;;;;;;;;;;;;;;;;;;2057323;28;19906;-73
2023/07/18 05:37:30;;;;;;;;;;;;;;;;;;2051023;28;20408;-73
2023/07/18 05:38:56;;;;;;;;;;;;;;;;;;2050100;29;19907;-74
2023/07/18 05:40:18;;;;;;;;;;;;;;;;;;2057856;28;19915;-73
2023/07/18 05:41:38;;;;;;;;;;;;;;;;;;2058187;28;19910;-73
2023/07/18 05:42:59;;;;;;;;;;;;;;;;;;2062061;28;19906;-74
2023/07/18 05:44:22;;;;;;;;;;;;;;;;;;2070710;28;19940;-79
2023/07/18 05:45:45;;;;;;;;;;;;;;;;;;2059311;28;20365;-80
2023/07/18 05:47:06;;;;;;;;;;;;;;;;;;2059181;28;19921;-81
2023/07/18 05:48:30;;;;;;;;;;;;;;;;;;2057732;28;19906;-75
2023/07/18 05:50:02;;;;;;;;;;;;;;;;;;2049796;28;19914;-75
2023/07/18 05:51:35;;;;;;;;;;;;;;;;;;2068500;28;19924;-75
2023/07/18 05:54:35;;;;;;;;;;;;;;;;;;2064520;28;19910;-80
2023/07/18 05:56:05;;;;;;;;;;;;;;;;;;2057532;28;19910;-79
2023/07/18 05:57:28;;;;;;;;;;;;;;;;;;2062794;28;19921;-80
2023/07/18 05:58:51;;;;;;;;;;;;;;;;;;2051597;28;20246;-79
2023/07/18 06:00:14;;;;;;;;;;;;;;;;;;2032426;28;19928;-79
2023/07/18 06:01:41;;;;;;;;;;;;;;;;;;2071342;28;20427;-80
2023/07/18 06:03:11;;;;;;;;;;;;;;;;;;2054589;28;19958;-81
2023/07/18 06:04:31;;;;;;;;;;;;;;;;;;2056218;28;19925;-79
2023/07/18 06:06:00;;;;;;;;;;;;;;;;;;2057316;28;19910;-79
2023/07/18 06:07:33;;;;;;;;;;;;;;;;;;;;;
2023/07/18 06:08:59;;;;;;;;;;;;;;;;;;2065395;28;19897;-79
2023/07/18 06:10:20;;;;;;;;;;;;;;;;;;2037555;29;19985;-79
2023/07/18 06:11:43;;;;;;;;;;;;;;;;;;2050768;28;19913;-79
2023/07/18 06:13:04;;;;;;;;;;;;;;;;;;2058219;28;19906;-78
2023/07/18 06:16:24;;;;;;;;;;;;;;;;;;2062911;28;19917;-78
2023/07/18 06:17:48;;;;;;;;;;;;;;;;;;2056333;28;19918;-79
2023/07/18 06:19:19;;;;;;;;;;;;;;;;;;2048724;29;19910;-78
2023/07/18 06:20:49;;;;;;;;;;;;;;;;;;2022718;29;19919;-80
2023/07/18 06:22:28;;;;;;;;;;;;;;;;;;2048816;29;19937;-79
2023/07/18 06:23:49;;;;;;;;;;;;;;;;;;2037792;29;19926;-73
2023/07/18 06:30:40;;;;;;;;;;;;;;;;;;;;;
2023/07/18 06:37:39;;;;;;;;;;;;;;;;;;;;;
2023/07/18 06:38:55;;;;;;;;;;;;;;;;;;1995869;29;19920;-73
2023/07/18 06:40:28;;;;;;;;;;;;;;;;;;;;;
2023/07/18 06:41:51;;;;;;;;;;;;;;;;;;2027805;29;20370;-73
2023/07/18 06:43:14;;;;;;;;;;;;;;;;;;2018309;29;19923;-73
2023/07/18 06:44:35;;;;;;;;;;;;;;;;;;2022670;29;20597;-76
2023/07/18 06:45:56;;;;;;;;;;;;;;;;;;2036130;29;19915;-76
2023/07/18 06:47:21;;;;;;;;;;;;;;;;;;2059338;28;20276;-76
2023/07/18 06:48:42;;;;;;;;;;;;;;;;;;2064181;28;19906;-78
2023/07/18 06:50:05;;;;;;;;;;;;;;;;;;2070188;28;19909;-78
2023/07/18 06:51:32;;;;;;;;;;;;;;;;;;2061188;28;19906;-78
2023/07/18 06:52:56;;;;;;;;;;;;;;;;;;2059254;28;19906;-79
2023/07/18 06:54:16;;;;;;;;;;;;;;;;;;2056287;28;19918;-79
2023/07/18 06:55:37;;;;;;;;;;;;;;;;;;2059632;28;19918;-78
2023/07/18 06:56:59;;;;;;;;;;;;;;;;;;2060107;28;20292;-78
2023/07/18 06:58:21;;;;;;;;;;;;;;;;;;2066704;28;19909;-78
2023/07/18 06:59:52;;;;;;;;;;;;;;;;;;2056721;28;19906;-77
2023/07/18 07:01:12;;;;;;;;;;;;;;;;;;2056952;28;19929;-77
2023/07/18 07:02:33;;;;;;;;;;;;;;;;;;2071789;28;19917;-73
2023/07/18 07:03:55;;;;;;;;;;;;;;;;;;2050765;28;19923;-73
2023/07/18 07:05:17;;;;;;;;;;;;;;;;;;2063605;28;19921;-74
2023/07/18 07:06:41;;;;;;;;;;;;;;;;;;2058666;28;19917;-76
2023/07/18 07:08:02;;;;;;;;;;;;;;;;;;2059730;28;19913;-76
2023/07/18 07:09:24;;;;;;;;;;;;;;;;;;2067972;28;19926;-76
2023/07/18 07:10:45;;;;;;;;;;;;;;;;;;2065838;28;19910;-76
2023/07/18 07:12:09;;;;;;;;;;;;;;;;;;2053571;28;19921;-77
2023/07/18 07:13:33;;;;;;;;;;;;;;;;;;2065804;28;19906;-79
2023/07/18 07:15:01;;;;;;;;;;;;;;;;;;2058537;28;19913;-79
2023/07/18 07:16:24;;;;;;;;;;;;;;;;;;2056608;28;19906;-79
2023/07/18 07:17:47;;;;;;;;;;;;;;;;;;2071100;28;19909;-74
2023/07/18 07:20:55;;;;;;;;;;;;;;;;;;2058719;28;19910;-74
2023/07/18 07:22:15;;;;;;;;;;;;;;;;;;2057947;28;19914;-78
2023/07/18 07:23:36;;;;;;;;;;;;;;;;;;2064816;28;20348;-78
2023/07/18 07:24:57;;;;;;;;;;;;;;;;;;2058516;28;19910;-78
2023/07/18 07:26:19;;;;;;;;;;;;;;;;;;2057763;28;19906;-78
2023/07/18 07:27:43;;;;;;;;;;;;;;;;;;2066415;28;19913;-77
2023/07/18 07:29:04;;;;;;;;;;;;;;;;;;2056501;28;19918;-78
2023/07/18 07:30:27;;;;;;;;;;;;;;;;;;2053321;28;19906;-77
2023/07/18 07:32:08;;;;;;;;;;;;;;;;;;2049341;28;19918;-78
2023/07/18 07:33:30;;;;;;;;;;;;;;;;;;2056762;28;19918;-79
2023/07/18 07:34:50;;;;;;;;;;;;;;;;;;2065282;28;19910;-74
2023/07/18 07:36:13;;;;;;;;;;;;;;;;;;2055647;28;19917;-75
2023/07/18 07:37:39;;;;;;;;;;;;;;;;;;2053900;28;20447;-74
2023/07/18 07:39:00;;;;;;;;;;;;;;;;;;2062665;28;19956;-74
2023/07/18 07:40:21;;;;;;;;;;;;;;;;;;2061921;28;19906;-74
2023/07/18 07:41:44;;;;;;;;;;;;;;;;;;2059699;28;20364;-78
2023/07/18 07:43:16;;;;;;;;;;;;;;;;;;2065706;28;19914;-77
2023/07/18 07:44:37;;;;;;;;;;;;;;;;;;2060297;28;19993;-78
2023/07/18 07:46:03;;;;;;;;;;;;;;;;;;2054550;28;19910;-78
2023/07/18 07:47:25;;;;;;;;;;;;;;;;;;2061437;28;19909;-79
2023/07/18 07:48:48;;;;;;;;;;;;;;;;;;2060854;28;19910;-79
2023/07/18 07:50:10;;;;;;;;;;;;;;;;;;2055048;28;19906;-79
2023/07/18 07:51:31;;;;;;;;;;;;;;;;;;2048983;28;19948;-74
2023/07/18 07:52:59;;;;;;;;;;;;;;;;;;2056456;28;19910;-74
2023/07/18 07:54:21;;;;;;;;;;;;;;;;;;2054522;28;19909;-74
2023/07/18 07:55:41;;;;;;;;;;;;;;;;;;2054800;28;19907;-79
2023/07/18 07:57:03;;;;;;;;;;;;;;;;;;2057035;28;19913;-79
2023/07/18 07:58:24;;;;;;;;;;;;;;;;;;2064718;28;19913;-79
2023/07/18 07:59:44;;;;;;;;;;;;;;;;;;2075812;28;19916;-79
2023/07/18 08:01:05;;;;;;;;;;;;;;;;;;2064642;28;20641;-78
2023/07/18 08:02:26;;;;;;;;;;;;;;;;;;2067101;28;19914;-78
2023/07/18 08:03:46;;;;;;;;;;;;;;;;;;2058556;28;19914;-79
2023/07/18 08:05:14;;;;;;;;;;;;;;;;;;2064003;28;19910;-79
2023/07/18 08:06:39;;;;;;;;;;;;;;;;;;2068375;28;19906;-79
2023/07/18 08:08:00;;;;;;;;;;;;;;;;;;2068690;28;19897;-79
2023/07/18 08:09:21;;;;;;;;;;;;;;;;;;2059806;28;19910;-79
2023/07/18 08:10:41;;;;;;;;;;;;;;;;;;2059516;28;19917;-78
2023/07/18 08:12:11;;;;;;;;;;;;;;;;;;2056201;28;19906;-79
2023/07/18 08:13:34;;;;;;;;;;;;;;;;;;2060807;28;20281;-79
2023/07/18 08:14:55;;;;;;;;;;;;;;;;;;2064704;28;20431;-79
2023/07/18 08:16:16;;;;;;;;;;;;;;;;;;2075731;28;19909;-77
2023/07/18 08:17:37;;;;;;;;;;;;;;;;;;2061514;28;19930;-76
2023/07/18 08:18:57;;;;;;;;;;;;;;;;;;2062917;28;19913;-76
2023/07/18 08:20:18;;;;;;;;;;;;;;;;;;2063389;28;19913;-76
2023/07/18 08:21:41;;;;;;;;;;;;;;;;;;2063248;28;19925;-77
2023/07/18 08:23:02;;;;;;;;;;;;;;;;;;2067534;28;19913;-77
2023/07/18 08:24:23;;;;;;;;;;;;;;;;;;2056138;28;19894;-74
2023/07/18 08:25:43;;;;;;;;;;;;;;;;;;2058053;28;19917;-74
2023/07/18 08:27:04;;;;;;;;;;;;;;;;;;2067544;28;19913;-74
2023/07/18 08:28:26;;;;;;;;;;;;;;;;;;2064543;28;20288;-75
2023/07/18 08:29:48;;;;;;;;;;;;;;;;;;2058663;28;19914;-74
2023/07/18 08:31:11;;;;;;;;;;;;;;;;;;2059431;28;20203;-74
2023/07/18 08:32:32;;;;;;;;;;;;;;;;;;2063303;28;19906;-74
2023/07/18 08:33:55;;;;;;;;;;;;;;;;;;2065723;28;20260;-74
2023/07/18 08:35:22;;;;;;;;;;;;;;;;;;2066437;28;19913;-75
2023/07/18 08:36:54;;;;;;;;;;;;;;;;;;2052697;28;20455;-75
2023/07/18 08:38:14;;;;;;;;;;;;;;;;;;2058305;28;19898;-79
2023/07/18 08:39:38;;;;;;;;;;;;;;;;;;2057031;28;19953;-79
2023/07/18 08:40:58;;;;;;;;;;;;;;;;;;2056932;28;19910;-79
2023/07/18 08:42:27;;;;;;;;;;;;;;;;;;2068396;28;19893;-79
2023/07/18 08:43:59;;;;;;;;;;;;;;;;;;2060945;28;19913;-79
2023/07/18 08:45:22;;;;;;;;;;;;;;;;;;2055087;28;19898;-79
2023/07/18 08:46:45;;;;;;;;;;;;;;;;;;2062453;28;19921;-75
2023/07/18 08:48:05;;;;;;;;;;;;;;;;;;2056624;28;19910;-74
2023/07/18 08:49:27;;;;;;;;;;;;;;;;;;2068697;28;20324;-74
2023/07/18 08:50:48;;;;;;;;;;;;;;;;;;2067143;28;19906;-74
2023/07/18 08:52:09;;;;;;;;;;;;;;;;;;2058449;28;19931;-74
2023/07/18 08:53:29;;;;;;;;;;;;;;;;;;2064482;28;19906;-74
2023/07/18 08:54:53;;;;;;;;;;;;;;;;;;2058610;28;19906;-75
2023/07/18 08:56:14;;;;;;;;;;;;;;;;;;2054363;28;19910;-78
2023/07/18 16:59:31;;;;;;;;;;;;;;;;;;2059125;26;19926;-93
2023/07/18 17:00:55;;;;;;;;;;;;;;;;;;2054800;28;19917;-91
2023/07/18 17:02:16;;;;;;;;;;;;;;;;;;2059637;28;19905;-92
2023/07/18 17:03:36;;;;;;;;;;;;;;;;;;2059266;28;19914;-89
2023/07/18 17:04:57;;;;;;;;;;;;;;;;;;2056538;28;19918;-92
2023/07/18 17:06:18;;;;;;;;;;;;;;;;;;2061799;28;19902;-91
2023/07/18 17:07:39;;;;;;;;;;;;;;;;;;2060893;28;19909;-93
2023/07/18 17:08:59;;;;;;;;;;;;;;;;;;2058990;28;19910;-92
2023/07/18 17:10:20;;;;;;;;;;;;;;;;;;2058165;28;19913;-93
2023/07/18 21:20:06;;;;;;;;;;;;;;;;;;2056209;28;19949;-90
2023/07/18 21:21:27;;;;;;;;;;;;;;;;;;2052233;28;19934;-90
2023/07/18 21:22:50;;;;;;;;;;;;;;;;;;2046681;29;19992;-90
2023/07/18 21:24:12;;;;;;;;;;;;;;;;;;2046387;28;19992;-91
2023/07/18 21:25:33;;;;;;;;;;;;;;;;;;2046737;28;19914;-90
2023/07/18 21:26:53;;;;;;;;;;;;;;;;;;2042780;29;20426;-90
2023/07/18 21:28:14;;;;;;;;;;;;;;;;;;2047767;29;19914;-89
2023/07/18 21:29:35;;;;;;;;;;;;;;;;;;2047550;29;19930;-89
2023/07/18 21:30:56;;;;;;;;;;;;;;;;;;2045906;28;19917;-90
2023/07/18 21:32:16;;;;;;;;;;;;;;;;;;2048159;28;19906;-90
2023/07/18 21:33:37;;;;;;;;;;;;;;;;;;2044377;29;19910;-90
2023/07/18 21:34:58;;;;;;;;;;;;;;;;;;2047325;29;19902;-89
2023/07/18 21:36:19;;;;;;;;;;;;;;;;;;2052791;28;19910;-90
2023/07/18 21:37:40;;;;;;;;;;;;;;;;;;2054519;28;19906;-89
2023/07/18 21:39:00;;;;;;;;;;;;;;;;;;2047015;28;19911;-89
2023/07/18 21:40:21;;;;;;;;;;;;;;;;;;2043595;28;19986;-89
2023/07/18 21:41:42;;;;;;;;;;;;;;;;;;2039690;29;20348;-90
2023/07/18 21:43:03;;;;;;;;;;;;;;;;;;2049450;28;19946;-90
2023/07/18 21:44:23;;;;;;;;;;;;;;;;;;2049591;28;19926;-90
2023/07/18 21:45:44;;;;;;;;;;;;;;;;;;2047207;28;19926;-89
2023/07/18 21:47:05;;;;;;;;;;;;;;;;;;2044711;29;19962;-89
2023/07/18 21:48:26;;;;;;;;;;;;;;;;;;2043147;28;20002;-89
2023/07/18 21:49:46;;;;;;;;;;;;;;;;;;2046248;29;19906;-90
2023/07/18 21:51:07;;;;;;;;;;;;;;;;;;2045400;28;20333;-89
2023/07/18 21:52:28;;;;;;;;;;;;;;;;;;2043697;28;19929;-89
2023/07/18 21:53:56;;;;;;;;;;;;;;;;;;2044301;29;19914;-89
2023/07/18 21:55:17;;;;;;;;;;;;;;;;;;2044822;29;19922;-90
2023/07/18 21:56:40;;;;;;;;;;;;;;;;;;2053938;28;20009;-89
2023/07/18 21:58:02;;;;;;;;;;;;;;;;;;2043886;29;19911;-90